createdAt,value
2019-04-30T00:01:01.726Z,9.28
2019-04-30T00:03:36.069Z,9.45
2019-04-30T00:06:03.439Z,9.43
2019-04-30T00:08:35.498Z,8.53
2019-04-30T00:11:00.464Z,9.60
2019-04-30T00:13:27.591Z,8.58
2019-04-30T00:16:00.118Z,11.75
2019-04-30T00:18:25.473Z,9.98
2019-04-30T00:20:52.768Z,9.38
2019-04-30T00:23:22.652Z,7.40
2019-04-30T00:25:48.674Z,10.45
2019-04-30T00:28:16.062Z,8.18
2019-04-30T00:30:43.937Z,6.42
2019-04-30T00:33:17.140Z,7.78
2019-04-30T00:35:42.270Z,10.25
2019-04-30T00:38:09.616Z,7.17
2019-04-30T00:40:37.673Z,7.97
2019-04-30T00:43:08.886Z,10.20
2019-04-30T00:45:35.336Z,7.00
2019-04-30T00:48:02.931Z,6.75
2019-04-30T00:50:33.936Z,6.50
2019-04-30T00:52:58.858Z,6.92
2019-04-30T00:55:25.819Z,6.97
2019-04-30T00:57:52.838Z,6.35
2019-04-30T01:00:28.178Z,8.28
2019-04-30T01:03:00.821Z,9.00
2019-04-30T01:05:27.046Z,10.40
2019-04-30T01:07:54.984Z,8.75
2019-04-30T01:10:24.734Z,7.03
2019-04-30T01:12:51.398Z,10.18
2019-04-30T01:15:19.513Z,8.38
2019-04-30T01:17:50.915Z,7.72
2019-04-30T01:20:19.361Z,9.98
2019-04-30T01:22:48.578Z,10.43
2019-04-30T01:25:16.162Z,11.38
2019-04-30T01:27:45.872Z,10.18
2019-04-30T01:30:18.709Z,11.28
2019-04-30T01:32:43.106Z,12.00
2019-04-30T01:35:10.191Z,11.93
2019-04-30T01:37:38.678Z,13.13
2019-04-30T01:40:10.556Z,10.75
2019-04-30T01:42:43.124Z,13.85
2019-04-30T01:45:06.146Z,12.20
2019-04-30T01:47:33.531Z,12.53
2019-04-30T01:50:04.735Z,14.78
2019-04-30T01:52:49.333Z,14.83
2019-04-30T01:55:19.685Z,15.93
2019-04-30T01:57:59.172Z,16.42
2019-04-30T02:00:30.571Z,15.10
2019-04-30T02:02:59.172Z,19.45
2019-04-30T02:05:26.308Z,14.30
2019-04-30T02:07:53.523Z,15.72
2019-04-30T02:10:20.690Z,16.25
2019-04-30T02:12:49.353Z,16.07
2019-04-30T02:15:16.973Z,16.97
2019-04-30T02:17:44.203Z,16.95
2019-04-30T02:20:11.483Z,16.67
2019-04-30T02:22:39.074Z,16.97
2019-04-30T02:25:06.971Z,17.40
2019-04-30T02:27:34.085Z,16.45
2019-04-30T02:30:02.743Z,14.87
2019-04-30T02:32:30.584Z,15.95
2019-04-30T02:35:09.410Z,14.40
2019-04-30T02:37:37.142Z,15.88
2019-04-30T02:40:04.778Z,15.95
2019-04-30T02:42:33.024Z,19.60
2019-04-30T02:45:03.866Z,18.90
2019-04-30T02:47:31.705Z,22.58
2019-04-30T02:50:14.101Z,17.95
2019-04-30T02:52:30.663Z,18.32
2019-04-30T02:54:59.907Z,19.07
2019-04-30T02:57:29.802Z,20.80
2019-04-30T03:00:09.923Z,17.67
2019-04-30T03:02:39.389Z,18.73
2019-04-30T03:05:06.420Z,21.62
2019-04-30T03:07:33.411Z,20.32
2019-04-30T03:10:00.485Z,19.73
2019-04-30T03:12:30.563Z,24.55
2019-04-30T03:14:56.779Z,19.67
2019-04-30T03:17:46.140Z,22.00
2019-04-30T03:20:40.072Z,22.95
2019-04-30T03:23:09.879Z,16.70
2019-04-30T03:25:36.402Z,18.50
2019-04-30T03:28:03.605Z,17.60
2019-04-30T03:30:31.830Z,16.05
2019-04-30T03:33:02.617Z,18.00
2019-04-30T03:35:32.267Z,23.25
2019-04-30T03:37:59.232Z,40.88
2019-04-30T03:40:30.072Z,37.70
2019-04-30T03:42:59.727Z,31.80
2019-04-30T03:45:26.799Z,44.73
2019-04-30T03:47:53.766Z,32.73
2019-04-30T03:50:20.706Z,20.35
2019-04-30T03:52:50.159Z,23.07
2019-04-30T03:55:16.799Z,25.20
2019-04-30T03:57:44.092Z,46.37
2019-04-30T04:00:13.488Z,49.05
2019-04-30T04:02:45.765Z,29.02
2019-04-30T04:05:35.663Z,33.58
2019-04-30T04:08:11.231Z,28.35
2019-04-30T04:10:43.447Z,36.08
2019-04-30T04:13:10.514Z,20.32
2019-04-30T04:15:39.707Z,29.95
2019-04-30T04:18:06.839Z,23.47
2019-04-30T04:20:33.933Z,19.70
2019-04-30T04:23:01.016Z,21.02
2019-04-30T04:25:29.858Z,25.65
2019-04-30T04:27:57.041Z,23.10
2019-04-30T04:30:24.291Z,22.73
2019-04-30T04:32:51.311Z,25.52
2019-04-30T04:35:19.746Z,24.37
2019-04-30T04:37:49.530Z,27.77
2019-04-30T04:40:16.728Z,25.37
2019-04-30T04:42:44.206Z,22.80
2019-04-30T04:45:11.532Z,23.40
2019-04-30T04:47:40.248Z,23.57
2019-04-30T04:50:10.259Z,22.90
2019-04-30T04:52:39.458Z,23.65
2019-04-30T04:55:06.586Z,23.65
2019-04-30T04:57:33.646Z,26.90
2019-04-30T05:00:07.198Z,25.68
2019-04-30T05:02:52.231Z,26.52
2019-04-30T05:05:19.649Z,25.00
2019-04-30T05:07:48.515Z,26.05
2019-04-30T05:10:16.077Z,28.00
2019-04-30T05:12:43.169Z,30.32
2019-04-30T05:15:10.409Z,27.13
2019-04-30T05:17:39.750Z,30.68
2019-04-30T05:20:09.790Z,34.15
2019-04-30T05:22:36.507Z,36.03
2019-04-30T05:25:03.794Z,30.25
2019-04-30T05:27:30.763Z,31.87
2019-04-30T05:29:59.529Z,31.17
2019-04-30T05:32:26.619Z,32.55
2019-04-30T05:34:54.289Z,33.38
2019-04-30T05:37:22.541Z,35.20
2019-04-30T05:39:50.627Z,34.53
2019-04-30T05:42:18.459Z,36.05
2019-04-30T05:44:45.628Z,33.90
2019-04-30T05:47:13.271Z,41.60
2019-04-30T05:49:40.597Z,31.73
2019-04-30T05:52:09.134Z,32.40
2019-04-30T05:54:38.998Z,52.27
2019-04-30T05:57:05.726Z,33.55
2019-04-30T05:59:32.869Z,31.27
2019-04-30T06:02:00.362Z,31.50
2019-04-30T06:04:29.319Z,76.67
2019-04-30T06:06:56.497Z,36.73
2019-04-30T06:09:48.543Z,37.65
2019-04-30T06:12:32.803Z,37.70
2019-04-30T06:15:16.643Z,34.27
2019-04-30T06:17:57.968Z,33.88
2019-04-30T06:20:20.448Z,35.58
2019-04-30T06:22:46.678Z,37.88
2019-04-30T06:25:14.213Z,36.73
2019-04-30T06:27:41.555Z,36.83
2019-04-30T06:30:11.857Z,37.33
2019-04-30T06:32:39.502Z,36.75
2019-04-30T06:35:11.374Z,38.42
2019-04-30T06:37:39.090Z,41.70
2019-04-30T06:40:11.430Z,41.88
2019-04-30T06:42:36.972Z,40.43
2019-04-30T06:45:05.443Z,37.60
2019-04-30T06:47:33.495Z,36.03
2019-04-30T06:50:01.324Z,38.90
2019-04-30T06:52:29.355Z,33.05
2019-04-30T06:54:59.550Z,37.85
2019-04-30T06:57:26.622Z,33.83
2019-04-30T06:59:53.589Z,40.38
2019-04-30T07:02:21.033Z,31.97
2019-04-30T07:04:49.106Z,32.88
2019-04-30T07:07:19.253Z,35.10
2019-04-30T07:09:55.927Z,32.83
2019-04-30T07:12:34.120Z,33.95
2019-04-30T07:15:01.681Z,36.98
2019-04-30T07:17:29.310Z,33.13
2019-04-30T07:19:57.200Z,34.63
2019-04-30T07:22:39.397Z,34.78
2019-04-30T07:24:53.442Z,36.85
2019-04-30T07:27:23.901Z,29.48
2019-04-30T07:29:49.581Z,34.70
2019-04-30T07:32:19.632Z,32.30
2019-04-30T07:34:46.819Z,31.57
2019-04-30T07:37:21.013Z,31.42
2019-04-30T07:39:43.733Z,32.93
2019-04-30T07:42:11.030Z,32.50
2019-04-30T07:44:39.479Z,31.20
2019-04-30T07:47:09.542Z,30.65
2019-04-30T07:49:49.426Z,29.77
2019-04-30T07:52:06.588Z,28.90
2019-04-30T07:54:34.744Z,29.85
2019-04-30T07:57:02.023Z,24.92
2019-04-30T07:59:30.182Z,20.20
2019-04-30T08:02:10.689Z,20.70
2019-04-30T08:05:10.327Z,21.25
2019-04-30T08:07:36.136Z,20.92
2019-04-30T08:10:04.126Z,18.90
2019-04-30T08:12:35.589Z,22.50
2019-04-30T08:15:00.075Z,20.00
2019-04-30T08:17:28.924Z,21.12
2019-04-30T08:19:58.621Z,22.15
2019-04-30T08:22:25.478Z,20.90
2019-04-30T08:24:52.468Z,18.27
2019-04-30T08:27:19.830Z,19.87
2019-04-30T08:29:46.958Z,17.52
2019-04-30T08:32:13.922Z,17.45
2019-04-30T08:34:42.020Z,16.65
2019-04-30T08:37:17.292Z,17.17
2019-04-30T08:39:39.732Z,16.55
2019-04-30T08:42:08.875Z,18.17
2019-04-30T08:44:36.651Z,15.70
2019-04-30T08:47:03.792Z,17.20
2019-04-30T08:49:31.213Z,16.77
2019-04-30T08:51:58.749Z,16.87
2019-04-30T08:54:29.923Z,15.93
2019-04-30T08:56:56.990Z,14.50
2019-04-30T08:59:23.982Z,15.08
2019-04-30T09:01:51.064Z,16.85
2019-04-30T09:04:20.004Z,15.40
2019-04-30T09:06:49.030Z,17.05
2019-04-30T09:09:18.809Z,14.85
2019-04-30T09:11:52.907Z,16.15
2019-04-30T09:14:15.729Z,13.83
2019-04-30T09:16:42.763Z,14.55
2019-04-30T09:19:11.898Z,14.98
2019-04-30T09:21:40.225Z,16.95
2019-04-30T09:24:09.504Z,18.10
2019-04-30T09:26:39.131Z,14.75
2019-04-30T09:29:09.369Z,15.30
2019-04-30T09:31:36.547Z,17.42
2019-04-30T09:34:14.167Z,16.67
2019-04-30T09:36:32.989Z,18.20
2019-04-30T09:39:01.411Z,17.12
2019-04-30T09:41:30.620Z,18.92
2019-04-30T09:43:59.754Z,15.50
2019-04-30T09:46:27.911Z,15.83
2019-04-30T09:48:56.327Z,17.80
2019-04-30T09:51:24.720Z,20.45
2019-04-30T09:53:58.544Z,18.52
2019-04-30T09:56:22.101Z,18.02
2019-04-30T09:58:49.554Z,16.37
2019-04-30T10:01:17.026Z,18.70
2019-04-30T10:03:44.632Z,17.42
2019-04-30T10:06:12.320Z,18.92
2019-04-30T10:08:47.863Z,18.02
2019-04-30T10:11:17.780Z,17.12
2019-04-30T10:13:44.859Z,18.10
2019-04-30T10:16:19.617Z,18.80
2019-04-30T10:18:46.629Z,17.65
2019-04-30T10:21:13.991Z,19.07
2019-04-30T10:23:40.990Z,17.37
2019-04-30T10:26:08.092Z,16.62
2019-04-30T10:28:38.878Z,16.55
2019-04-30T10:31:07.091Z,17.67
2019-04-30T10:33:34.058Z,17.75
2019-04-30T10:36:01.123Z,18.95
2019-04-30T10:38:29.369Z,18.50
2019-04-30T10:40:58.622Z,18.70
2019-04-30T10:43:26.134Z,17.37
2019-04-30T10:45:53.157Z,18.27
2019-04-30T10:48:20.330Z,18.27
2019-04-30T10:50:49.186Z,18.20
2019-04-30T10:53:16.471Z,18.73
2019-04-30T10:55:43.555Z,18.80
2019-04-30T10:58:10.706Z,17.55
2019-04-30T11:00:39.861Z,18.45
2019-04-30T11:03:19.110Z,18.87
2019-04-30T11:05:40.975Z,17.65
2019-04-30T11:08:07.930Z,18.42
2019-04-30T11:10:35.394Z,18.20
2019-04-30T11:13:02.908Z,17.95
2019-04-30T11:15:30.044Z,19.42
2019-04-30T11:17:59.510Z,19.73
2019-04-30T11:20:26.540Z,20.75
2019-04-30T11:22:54.902Z,19.98
2019-04-30T11:25:23.193Z,18.82
2019-04-30T11:27:51.462Z,19.62
2019-04-30T11:30:23.908Z,18.12
2019-04-30T11:32:48.881Z,19.23
2019-04-30T11:35:18.749Z,19.90
2019-04-30T11:37:45.594Z,20.15
2019-04-30T11:40:13.568Z,20.15
2019-04-30T11:42:40.742Z,19.32
2019-04-30T11:45:08.550Z,19.80
2019-04-30T11:47:36.693Z,18.85
2019-04-30T11:50:10.440Z,19.90
2019-04-30T11:52:38.748Z,19.37
2019-04-30T11:55:06.891Z,20.17
2019-04-30T11:57:34.046Z,20.85
2019-04-30T12:00:01.240Z,19.25
2019-04-30T12:02:35.538Z,21.73
2019-04-30T12:05:05.228Z,20.60
2019-04-30T12:08:04.188Z,21.15
2019-04-30T12:10:57.066Z,20.80
2019-04-30T12:13:25.300Z,20.85
2019-04-30T12:15:53.941Z,21.12
2019-04-30T12:18:21.461Z,20.80
2019-04-30T12:20:48.558Z,21.30
2019-04-30T12:23:15.613Z,21.07
2019-04-30T12:25:42.809Z,21.75
2019-04-30T12:28:10.804Z,21.57
2019-04-30T12:30:39.127Z,24.92
2019-04-30T12:33:06.251Z,23.90
2019-04-30T12:35:33.495Z,22.30
2019-04-30T12:38:00.758Z,21.82
2019-04-30T12:40:30.044Z,20.85
2019-04-30T12:42:56.895Z,21.30
2019-04-30T12:45:24.048Z,23.62
2019-04-30T12:47:55.330Z,21.93
2019-04-30T12:50:46.147Z,21.80
2019-04-30T12:53:19.070Z,22.62
2019-04-30T12:56:00.226Z,23.45
2019-04-30T12:58:26.406Z,24.43
2019-04-30T13:00:53.801Z,25.15
2019-04-30T13:03:20.891Z,24.63
2019-04-30T13:05:50.749Z,24.55
2019-04-30T13:08:17.633Z,23.70
2019-04-30T13:10:46.480Z,24.25
2019-04-30T13:13:14.686Z,27.20
2019-04-30T13:15:41.967Z,24.55
2019-04-30T13:18:09.525Z,26.05
2019-04-30T13:20:38.992Z,25.05
2019-04-30T13:23:06.046Z,25.50
2019-04-30T13:25:35.561Z,25.35
2019-04-30T13:28:07.165Z,26.70
2019-04-30T13:30:34.375Z,26.02
2019-04-30T13:33:28.887Z,24.30
2019-04-30T13:35:55.944Z,24.80
2019-04-30T13:38:47.522Z,27.48
2019-04-30T13:41:19.207Z,26.93
2019-04-30T13:44:03.202Z,26.65
2019-04-30T13:46:30.584Z,25.37
2019-04-30T13:48:58.388Z,27.45
2019-04-30T13:51:25.577Z,29.05
2019-04-30T13:53:53.278Z,29.30
2019-04-30T13:56:20.382Z,27.60
2019-04-30T13:58:47.507Z,27.27
2019-04-30T14:01:15.999Z,28.77
2019-04-30T14:03:50.211Z,30.25
2019-04-30T14:06:19.659Z,28.90
2019-04-30T14:08:49.152Z,28.85
2019-04-30T14:11:16.494Z,28.47
2019-04-30T14:13:43.551Z,29.20
2019-04-30T14:16:11.119Z,29.02
2019-04-30T14:18:39.042Z,27.45
2019-04-30T14:21:06.453Z,27.55
2019-04-30T14:23:33.750Z,26.73
2019-04-30T14:26:01.393Z,26.48
2019-04-30T14:28:29.221Z,27.65
2019-04-30T14:30:56.698Z,26.00
2019-04-30T14:33:26.654Z,26.15
2019-04-30T14:35:52.975Z,25.85
2019-04-30T14:38:20.145Z,27.73
2019-04-30T14:40:51.034Z,25.92
2019-04-30T14:43:24.925Z,25.32
2019-04-30T14:46:05.011Z,25.20
2019-04-30T14:48:40.170Z,25.17
2019-04-30T14:51:09.072Z,24.87
2019-04-30T14:53:48.994Z,24.52
2019-04-30T14:56:36.298Z,27.13
2019-04-30T14:59:21.623Z,24.87
2019-04-30T15:01:55.208Z,26.27
2019-04-30T15:04:22.348Z,27.40
2019-04-30T15:06:50.131Z,27.10
2019-04-30T15:09:21.725Z,26.68
2019-04-30T15:11:48.843Z,25.30
2019-04-30T15:14:15.870Z,26.50
2019-04-30T15:16:43.435Z,28.92
2019-04-30T15:19:10.873Z,26.62
2019-04-30T15:21:38.433Z,26.05
2019-04-30T15:24:19.285Z,27.85
2019-04-30T15:26:46.466Z,25.90
2019-04-30T15:29:16.101Z,27.05
2019-04-30T15:31:42.689Z,28.07
2019-04-30T15:34:13.682Z,28.25
2019-04-30T15:36:40.868Z,26.20
2019-04-30T15:39:30.636Z,30.23
2019-04-30T15:41:57.835Z,30.52
2019-04-30T15:44:24.965Z,30.75
2019-04-30T15:46:52.372Z,31.00
2019-04-30T15:49:19.591Z,28.67
2019-04-30T15:51:47.016Z,28.30
2019-04-30T15:54:16.674Z,30.32
2019-04-30T15:56:43.940Z,29.92
2019-04-30T15:59:23.232Z,31.50
2019-04-30T16:01:52.911Z,28.73
2019-04-30T16:04:30.120Z,32.73
2019-04-30T16:06:58.472Z,33.60
2019-04-30T16:09:33.247Z,27.65
2019-04-30T16:12:20.094Z,31.85
2019-04-30T16:14:49.723Z,30.85
2019-04-30T16:17:20.740Z,28.15
2019-04-30T16:19:48.076Z,30.20
2019-04-30T16:22:15.328Z,29.75
2019-04-30T16:24:42.365Z,25.72
2019-04-30T16:27:09.718Z,27.75
2019-04-30T16:29:38.725Z,28.27
2019-04-30T16:32:05.657Z,27.55
2019-04-30T16:34:32.893Z,28.32
2019-04-30T16:37:00.160Z,26.48
2019-04-30T16:39:28.776Z,30.45
2019-04-30T16:41:56.168Z,27.90
2019-04-30T16:44:23.347Z,29.67
2019-04-30T16:46:50.623Z,27.80
2019-04-30T16:49:17.968Z,27.80
2019-04-30T16:51:45.380Z,28.40
2019-04-30T16:54:12.444Z,28.02
2019-04-30T16:56:39.705Z,27.65
2019-04-30T16:59:09.003Z,30.02
2019-04-30T17:01:36.545Z,29.32
2019-04-30T17:04:11.432Z,30.12
2019-04-30T17:06:42.013Z,32.03
2019-04-30T17:09:16.272Z,31.20
2019-04-30T17:12:01.958Z,31.40
2019-04-30T17:14:30.704Z,33.53
2019-04-30T17:16:59.651Z,32.35
2019-04-30T17:19:29.213Z,31.75
2019-04-30T17:21:56.276Z,32.65
2019-04-30T17:24:23.830Z,32.45
2019-04-30T17:26:51.305Z,32.55
2019-04-30T17:29:19.468Z,35.50
2019-04-30T17:31:46.770Z,34.55
2019-04-30T17:34:13.778Z,35.83
2019-04-30T17:36:41.042Z,32.40
2019-04-30T17:39:11.849Z,32.30
2019-04-30T17:41:39.844Z,31.90
2019-04-30T17:44:08.772Z,33.65
2019-04-30T17:46:36.087Z,33.73
2019-04-30T17:49:03.719Z,32.70
2019-04-30T17:51:31.359Z,33.80
2019-04-30T17:54:13.770Z,34.53
2019-04-30T17:56:41.943Z,29.67
2019-04-30T17:59:09.448Z,35.40
2019-04-30T18:01:39.948Z,29.77
2019-04-30T18:04:06.252Z,30.40
2019-04-30T18:06:33.462Z,28.32
2019-04-30T18:09:00.456Z,30.00
2019-04-30T18:11:29.442Z,26.82
2019-04-30T18:13:58.667Z,28.10
2019-04-30T18:16:25.841Z,27.42
2019-04-30T18:18:59.247Z,28.35
2019-04-30T18:21:31.134Z,27.80
2019-04-30T18:24:16.576Z,30.02
2019-04-30T18:26:49.079Z,28.75
2019-04-30T18:29:16.444Z,31.05
2019-04-30T18:31:43.520Z,26.77
2019-04-30T18:34:10.810Z,27.77
2019-04-30T18:36:39.289Z,28.92
2019-04-30T18:39:06.602Z,27.82
2019-04-30T18:41:35.809Z,30.90
2019-04-30T18:44:03.012Z,28.20
2019-04-30T18:46:30.442Z,27.65
2019-04-30T18:48:59.219Z,29.35
2019-04-30T18:51:36.477Z,29.45
2019-04-30T18:53:55.563Z,29.52
2019-04-30T18:56:22.658Z,30.23
2019-04-30T18:58:50.164Z,31.35
2019-04-30T19:01:18.902Z,29.02
2019-04-30T19:03:46.287Z,28.05
2019-04-30T19:06:25.303Z,29.95
2019-04-30T19:09:00.836Z,31.12
2019-04-30T19:11:55.526Z,33.53
2019-04-30T19:14:51.218Z,34.98
2019-04-30T19:17:29.645Z,30.62
2019-04-30T19:20:08.573Z,31.37
2019-04-30T19:22:36.078Z,34.20
2019-04-30T19:25:04.434Z,30.23
2019-04-30T19:27:32.195Z,34.35
2019-04-30T19:29:59.803Z,29.48
2019-04-30T19:32:30.292Z,30.43
2019-04-30T19:34:56.117Z,30.82
2019-04-30T19:37:23.767Z,30.25
2019-04-30T19:39:51.297Z,31.75
2019-04-30T19:42:18.799Z,29.40
2019-04-30T19:44:56.147Z,32.00
2019-04-30T19:47:15.086Z,27.45
2019-04-30T19:49:43.309Z,32.25
2019-04-30T19:52:11.782Z,28.55
2019-04-30T19:54:40.601Z,32.08
2019-04-30T19:57:10.042Z,32.38
2019-04-30T19:59:36.977Z,29.45
2019-04-30T20:02:04.253Z,32.23
2019-04-30T20:04:35.602Z,35.35
2019-04-30T20:07:00.401Z,30.97
2019-04-30T20:09:29.145Z,33.78
2019-04-30T20:11:57.005Z,31.75
2019-04-30T20:14:24.242Z,34.15
2019-04-30T20:16:51.333Z,29.18
2019-04-30T20:19:38.767Z,29.35
2019-04-30T20:22:05.942Z,30.17
2019-04-30T20:24:34.763Z,35.43
2019-04-30T20:27:07.141Z,30.48
2019-04-30T20:29:30.957Z,32.03
2019-04-30T20:31:58.999Z,29.10
2019-04-30T20:34:29.203Z,35.73
2019-04-30T20:36:58.365Z,35.88
2019-04-30T20:39:31.716Z,34.40
2019-04-30T20:41:59.253Z,35.30
2019-04-30T20:44:26.222Z,35.28
2019-04-30T20:46:53.250Z,33.63
2019-04-30T20:49:20.509Z,36.38
2019-04-30T20:51:55.532Z,36.70
2019-04-30T20:54:18.913Z,39.63
2019-04-30T20:56:46.020Z,35.63
2019-04-30T20:59:13.460Z,32.85
2019-04-30T21:01:40.419Z,33.78
2019-04-30T21:04:07.576Z,36.23
2019-04-30T21:06:34.731Z,38.75
2019-04-30T21:09:02.084Z,39.13
2019-04-30T21:11:31.508Z,38.02
2019-04-30T21:13:59.161Z,35.68
2019-04-30T21:16:27.271Z,38.53
2019-04-30T21:18:59.579Z,38.90
2019-04-30T21:21:28.798Z,44.15
2019-04-30T21:23:57.887Z,37.98
2019-04-30T21:26:25.342Z,46.08
2019-04-30T21:28:52.676Z,43.30
2019-04-30T21:31:48.386Z,42.23
2019-04-30T21:34:39.355Z,41.73
2019-04-30T21:37:09.753Z,41.02
2019-04-30T21:39:36.778Z,39.70
2019-04-30T21:42:03.881Z,40.88
2019-04-30T21:44:31.738Z,44.30
2019-04-30T21:46:59.167Z,47.23
2019-04-30T21:49:26.478Z,42.23
2019-04-30T21:51:53.524Z,42.78
2019-04-30T21:54:20.858Z,43.87
2019-04-30T21:56:48.202Z,41.68
2019-04-30T21:59:24.130Z,41.33
2019-04-30T22:01:44.842Z,43.10
2019-04-30T22:04:12.536Z,42.13
2019-04-30T22:06:39.543Z,42.53
2019-04-30T22:09:09.747Z,42.27
2019-04-30T22:11:39.463Z,41.10
2019-04-30T22:14:06.794Z,40.83
2019-04-30T22:16:34.362Z,40.00
2019-04-30T22:19:01.815Z,45.28
2019-04-30T22:21:30.459Z,43.25
2019-04-30T22:23:57.557Z,41.85
2019-04-30T22:26:24.686Z,37.28
2019-04-30T22:28:52.349Z,40.92
2019-04-30T22:31:19.873Z,39.00
2019-04-30T22:33:48.970Z,40.60
2019-04-30T22:36:25.738Z,36.83
2019-04-30T22:39:29.960Z,40.95
2019-04-30T22:42:19.085Z,37.38
2019-04-30T22:44:46.282Z,39.58
2019-04-30T22:47:13.226Z,35.92
2019-04-30T22:49:40.678Z,39.15
2019-04-30T22:52:07.717Z,36.03
2019-04-30T22:54:34.789Z,34.75
2019-04-30T22:57:03.767Z,38.35
2019-04-30T22:59:32.151Z,35.60
2019-04-30T23:02:19.257Z,37.48
2019-04-30T23:04:47.090Z,35.80
2019-04-30T23:07:14.373Z,34.53
2019-04-30T23:09:41.668Z,35.52
2019-04-30T23:12:09.230Z,35.73
2019-04-30T23:14:36.474Z,35.05
2019-04-30T23:17:04.083Z,32.65
2019-04-30T23:19:31.394Z,33.35
2019-04-30T23:21:58.859Z,30.85
2019-04-30T23:24:25.966Z,32.25
2019-04-30T23:26:53.140Z,31.25
2019-04-30T23:29:20.414Z,30.92
2019-04-30T23:31:47.586Z,35.15
2019-04-30T23:34:18.100Z,36.85
2019-04-30T23:36:43.526Z,36.23
2019-04-30T23:39:10.826Z,35.80
2019-04-30T23:41:38.046Z,32.50
2019-04-30T23:44:05.027Z,33.00
2019-04-30T23:46:32.360Z,33.20
2019-04-30T23:48:59.724Z,35.30
2019-04-30T23:51:26.882Z,32.38
2019-04-30T23:53:55.390Z,34.13
2019-04-30T23:56:22.379Z,31.37
2019-04-30T23:58:49.383Z,33.75
